Time;durP1;ratioP1;P1;durP2;ratioP2;P2;SDS_P1;SDS_P2;PMS_P1;PMS_P2;Temp;Humidity;BMP_temperature;BMP_pressure;BME280_temperature;BME280_humidity;BME280_pressure;Samples;Min_cycle;Max_cycle;Signal;HPM_P1;HPM_P2
2023/01/21 00:00:43;;;;;;;40.80;22.63;;;-0.40;99.90;;;;;;5043076;28;20063;-58
2023/01/21 00:03:11;;;;;;;42.17;22.38;;;-0.40;99.90;;;;;;5038960;28;20049;-58
2023/01/21 00:05:37;;;;;;;41.38;22.38;;;-0.40;99.90;;;;;;5041669;28;20049;-57
2023/01/21 00:08:03;;;;;;;42.88;22.65;;;-0.40;99.90;;;;;;5042062;28;20451;-58
2023/01/21 00:10:29;;;;;;;41.25;23.77;;;-0.50;99.90;;;;;;5014679;28;20143;-58
2023/01/21 00:12:54;;;;;;;43.42;23.60;;;-0.50;99.90;;;;;;5043327;28;20157;-58
2023/01/21 00:15:20;;;;;;;42.63;22.83;;;-0.50;99.90;;;;;;5041305;28;20045;-58
2023/01/21 00:17:46;;;;;;;41.00;22.95;;;-0.50;99.90;;;;;;5023500;28;20561;-58
2023/01/21 00:20:12;;;;;;;38.42;21.08;;;-0.50;99.90;;;;;;5042187;28;20606;-58
2023/01/21 00:22:38;;;;;;;36.28;20.52;;;-0.60;99.90;;;;;;5041832;28;20059;-59
2023/01/21 00:25:04;;;;;;;40.90;22.05;;;-0.60;99.90;;;;;;5040187;28;20064;-59
2023/01/21 00:27:30;;;;;;;39.95;22.98;;;-0.60;99.90;;;;;;5039482;28;20087;-58
2023/01/21 00:29:56;;;;;;;40.83;21.45;;;-0.70;99.90;;;;;;5036785;28;20137;-58
2023/01/21 00:32:22;;;;;;;39.97;20.75;;;-0.70;99.90;;;;;;5002990;28;20044;-58
2023/01/21 00:34:47;;;;;;;38.97;21.00;;;-0.70;99.90;;;;;;5039477;28;20040;-58
2023/01/21 00:37:13;;;;;;;38.30;20.83;;;-0.80;99.90;;;;;;5022692;28;20049;-59
2023/01/21 00:39:41;;;;;;;39.15;21.90;;;-0.70;99.90;;;;;;5040838;28;20049;-58
2023/01/21 00:42:10;;;;;;;38.72;21.10;;;-0.80;99.90;;;;;;5040534;28;20064;-57
2023/01/21 00:44:39;;;;;;;38.67;20.65;;;-0.80;99.90;;;;;;5042536;28;20044;-58
2023/01/21 00:47:06;;;;;;;40.42;21.45;;;-0.90;99.90;;;;;;5039645;28;20040;-58
2023/01/21 00:49:32;;;;;;;41.55;21.73;;;-0.80;99.90;;;;;;5005284;28;20040;-59
2023/01/21 00:51:58;;;;;;;41.15;22.15;;;-0.90;99.90;;;;;;5025034;28;20044;-58
2023/01/21 00:54:24;;;;;;;40.22;22.30;;;-0.90;99.90;;;;;;5039192;28;20160;-58
2023/01/21 00:56:50;;;;;;;45.25;21.90;;;-1.00;99.90;;;;;;5042419;28;20045;-58
2023/01/21 00:59:16;;;;;;;41.65;21.23;;;-0.90;99.90;;;;;;5043814;28;20569;-58
2023/01/21 01:01:41;;;;;;;36.85;20.83;;;-1.00;99.90;;;;;;5042208;28;20116;-58
2023/01/21 01:04:09;;;;;;;40.08;21.60;;;-1.00;99.90;;;;;;5046031;28;20589;-56
2023/01/21 01:06:35;;;;;;;39.92;21.30;;;-1.10;99.90;;;;;;5025267;28;20045;-59
2023/01/21 01:09:01;;;;;;;41.50;22.52;;;-1.10;99.90;;;;;;5044326;28;20057;-58
2023/01/21 01:11:28;;;;;;;44.40;23.00;;;-1.00;99.90;;;;;;5041923;28;20041;-58
2023/01/21 01:13:54;;;;;;;43.90;23.90;;;-1.10;99.90;;;;;;5044262;28;20058;-59
2023/01/21 01:16:22;;;;;;;47.78;24.17;;;-1.10;99.90;;;;;;5043024;28;20589;-58
2023/01/21 01:18:51;;;;;;;44.17;22.85;;;-1.20;99.90;;;;;;5042709;28;20036;-58
2023/01/21 01:21:20;;;;;;;46.45;23.65;;;-1.20;99.90;;;;;;5044664;28;20049;-59
2023/01/21 01:23:47;;;;;;;44.67;23.92;;;-1.20;99.90;;;;;;5045113;28;20136;-57
2023/01/21 01:26:15;;;;;;;43.17;23.73;;;-1.20;99.90;;;;;;5038035;28;20036;-57
2023/01/21 01:28:41;;;;;;;46.50;23.40;;;-1.20;99.90;;;;;;5036964;28;20047;-57
2023/01/21 01:31:10;;;;;;;45.63;23.65;;;-1.30;99.90;;;;;;5023058;28;20056;-58
2023/01/21 01:33:36;;;;;;;43.60;23.38;;;-1.30;99.90;;;;;;5042360;28;20052;-58
2023/01/21 01:36:07;;;;;;;40.45;22.85;;;-1.30;99.90;;;;;;5037238;28;20063;-58
2023/01/21 01:38:33;;;;;;;43.60;22.73;;;-1.30;99.90;;;;;;5037218;28;20119;-58
2023/01/21 01:41:00;;;;;;;49.15;25.38;;;-1.40;99.90;;;;;;5037028;28;20073;-58
2023/01/21 01:43:49;;;;;;;43.33;25.17;;;-1.40;99.90;;;;;;5040022;28;20138;-58
2023/01/21 01:46:15;;;;;;;47.60;23.80;;;-1.40;99.90;;;;;;5038685;28;20547;-58
2023/01/21 01:48:43;;;;;;;47.65;24.40;;;-1.40;99.90;;;;;;5040256;28;20186;-58
2023/01/21 01:51:10;;;;;;;44.47;23.15;;;-1.40;99.90;;;;;;5038312;28;20053;-58
2023/01/21 01:53:40;;;;;;;44.25;23.27;;;-1.50;99.90;;;;;;5041526;28;20037;-58
2023/01/21 01:56:06;;;;;;;46.47;24.27;;;-1.50;99.90;;;;;;4996729;28;20089;-58
2023/01/21 01:58:33;;;;;;;45.40;23.20;;;-1.60;99.90;;;;;;5044354;28;20081;-59
2023/01/21 02:00:59;;;;;;;49.13;25.58;;;-1.50;99.90;;;;;;5042065;28;20052;-59
2023/01/21 02:03:43;;;;;;;42.97;23.30;;;-1.60;99.90;;;;;;5040890;28;20071;-58
2023/01/21 02:06:09;;;;;;;45.75;23.02;;;-1.60;99.90;;;;;;5039516;28;20384;-57
2023/01/21 02:08:35;;;;;;;47.50;24.25;;;-1.60;99.90;;;;;;5040791;28;20103;-58
2023/01/21 02:11:01;;;;;;;47.40;24.08;;;-1.60;99.90;;;;;;5038479;28;20484;-58
2023/01/21 02:13:29;;;;;;;47.63;23.80;;;-1.60;99.90;;;;;;5040421;28;20091;-58
2023/01/21 02:16:31;;;;;;;49.55;24.35;;;-1.70;99.90;;;;;;5041062;28;20055;-57
2023/01/21 02:19:34;;;;;;;49.70;24.15;;;-1.60;99.90;;;;;;5038505;28;20116;-59
2023/01/21 02:22:35;;;;;;;49.83;24.52;;;-1.60;99.90;;;;;;5039601;28;20064;-58
2023/01/21 02:25:29;;;;;;;49.92;25.48;;;-1.70;99.90;;;;;;5040386;28;20149;-58
2023/01/21 02:28:24;;;;;;;49.67;25.15;;;-1.70;99.90;;;;;;5038200;28;20484;-58
2023/01/21 02:31:22;;;;;;;47.78;24.48;;;-1.70;99.90;;;;;;5020636;28;20076;-58
2023/01/21 02:34:07;;;;;;;53.70;25.70;;;-1.70;99.90;;;;;;5021983;28;20445;-58
2023/01/21 02:36:35;;;;;;;51.42;25.30;;;-1.70;99.90;;;;;;5039306;28;20056;-58
2023/01/21 02:39:34;;;;;;;50.20;24.92;;;-1.70;99.90;;;;;;5040121;28;20045;-57
2023/01/21 02:42:31;;;;;;;51.08;25.70;;;-1.70;99.90;;;;;;5043289;28;20045;-59
2023/01/21 02:45:18;;;;;;;52.17;26.15;;;-1.80;99.90;;;;;;5013301;28;20052;-58
2023/01/21 02:48:10;;;;;;;51.05;25.13;;;-1.80;99.90;;;;;;5040688;28;20045;-58
2023/01/21 02:50:44;;;;;;;53.28;26.23;;;-1.80;99.90;;;;;;5043429;28;20044;-59
2023/01/21 02:53:36;;;;;;;55.05;27.58;;;-1.80;99.90;;;;;;5026008;28;20132;-59
2023/01/21 02:56:08;;;;;;;60.75;27.63;;;-1.70;99.90;;;;;;5038319;28;20076;-58
2023/01/21 02:58:41;;;;;;;57.90;27.67;;;-1.70;99.90;;;;;;5047354;28;20067;-58
2023/01/21 03:01:34;;;;;;;54.80;26.63;;;-1.70;99.90;;;;;;5047608;28;20044;-59
2023/01/21 03:04:21;;;;;;;56.17;27.15;;;-1.60;99.90;;;;;;5047963;28;20502;-58
2023/01/21 03:07:04;;;;;;;58.28;27.33;;;-1.70;99.90;;;;;;5048009;28;20037;-58
2023/01/21 03:09:32;;;;;;;53.50;25.80;;;-1.60;99.90;;;;;;5045402;28;20495;-57
2023/01/21 03:12:16;;;;;;;56.90;27.73;;;-1.70;99.90;;;;;;5024321;28;20052;-58
2023/01/21 03:18:23;;;;;;;55.67;27.13;;;-1.60;99.90;;;;;;5044015;28;20075;-58
2023/01/21 03:21:14;;;;;;;52.72;26.15;;;-1.60;99.90;;;;;;5028622;28;20503;-57
2023/01/21 03:23:44;;;;;;;59.42;27.90;;;-1.60;99.90;;;;;;5044446;28;20053;-58
2023/01/21 03:26:13;;;;;;;55.42;26.35;;;-1.60;99.90;;;;;;5024352;28;20068;-58
2023/01/21 03:28:44;;;;;;;58.35;26.77;;;-1.60;99.90;;;;;;5041034;28;20736;-58
2023/01/21 03:31:22;;;;;;;57.53;26.23;;;-1.60;99.90;;;;;;5043223;28;20153;-57
2023/01/21 03:33:52;;;;;;;62.67;28.98;;;-1.50;99.90;;;;;;5040464;28;20033;-58
2023/01/21 03:36:45;;;;;;;64.00;28.08;;;-1.60;99.90;;;;;;5025935;28;20180;-58
2023/01/21 03:39:28;;;;;;;;;;;-1.60;99.90;;;;;;4991184;28;20119;-58
2023/01/21 03:41:54;;;;;;;58.70;28.35;;;-1.60;99.90;;;;;;5042497;28;20307;-57
2023/01/21 03:44:20;;;;;;;64.68;28.77;;;-1.60;99.90;;;;;;5008843;28;20124;-58
2023/01/21 03:47:01;;;;;;;63.00;29.25;;;-1.50;99.90;;;;;;5043167;28;20049;-58
2023/01/21 03:49:34;;;;;;;63.40;29.05;;;-1.50;99.90;;;;;;5044741;28;20179;-58
2023/01/21 03:52:02;;;;;;;63.92;29.67;;;-1.50;99.90;;;;;;5043136;28;20128;-58
2023/01/21 03:54:28;;;;;;;66.38;30.27;;;-1.40;99.90;;;;;;5024545;28;20079;-58
2023/01/21 03:56:54;;;;;;;62.72;28.88;;;-1.40;99.90;;;;;;5035105;28;20049;-58
2023/01/21 03:59:20;;;;;;;67.55;32.22;;;-1.40;99.90;;;;;;5022369;28;20489;-57
2023/01/21 04:01:45;;;;;;;74.05;33.47;;;-1.40;99.90;;;;;;5024087;28;20079;-58
2023/01/21 04:04:11;;;;;;;68.63;31.42;;;-1.30;99.90;;;;;;5026677;28;20141;-59
2023/01/21 04:06:37;;;;;;;73.00;32.28;;;-1.30;99.90;;;;;;5040443;28;20064;-58
2023/01/21 04:09:04;;;;;;;70.45;32.45;;;-1.20;99.90;;;;;;5042308;28;20049;-58
2023/01/21 04:11:30;;;;;;;73.18;32.22;;;-1.20;99.90;;;;;;5037558;28;20041;-58
2023/01/21 04:13:55;;;;;;;72.28;33.28;;;-1.20;99.90;;;;;;5025222;28;20112;-58
2023/01/21 04:16:21;;;;;;;71.72;32.78;;;-1.20;99.90;;;;;;5042556;28;20040;-59
2023/01/21 04:18:47;;;;;;;70.38;32.92;;;-1.20;99.90;;;;;;5042309;28;20052;-58
2023/01/21 04:21:14;;;;;;;71.28;31.70;;;-1.10;99.90;;;;;;5021486;28;20049;-58
2023/01/21 04:23:39;;;;;;;73.90;32.83;;;-1.10;99.90;;;;;;5041150;28;20059;-59
2023/01/21 04:26:06;;;;;;;74.65;33.55;;;-1.10;99.90;;;;;;5021732;28;20049;-58
2023/01/21 04:28:32;;;;;;;72.50;33.00;;;-1.00;99.90;;;;;;5041145;28;20091;-57
2023/01/21 04:30:58;;;;;;;80.72;35.17;;;-1.00;99.90;;;;;;5041790;28;20056;-59
2023/01/21 04:33:24;;;;;;;75.03;34.42;;;-1.00;99.90;;;;;;5041124;28;20118;-58
2023/01/21 04:35:50;;;;;;;72.18;33.38;;;-1.00;99.90;;;;;;5038046;28;20037;-58
2023/01/21 04:38:17;;;;;;;67.78;33.22;;;-0.90;99.90;;;;;;5040340;28;20110;-58
2023/01/21 04:40:43;;;;;;;68.28;32.60;;;-0.90;99.90;;;;;;5026818;28;20126;-58
2023/01/21 04:43:09;;;;;;;66.07;31.70;;;-0.90;99.90;;;;;;5042175;28;20140;-58
2023/01/21 04:45:34;;;;;;;64.53;31.70;;;-0.80;99.90;;;;;;5002182;28;20116;-58
2023/01/21 04:48:00;;;;;;;70.97;31.70;;;-0.90;99.90;;;;;;5042072;28;20053;-58
2023/01/21 04:50:26;;;;;;;67.07;32.25;;;-0.90;99.90;;;;;;5024412;28;20041;-58
2023/01/21 04:52:52;;;;;;;60.22;30.60;;;-0.80;99.90;;;;;;5044194;28;20470;-57
2023/01/21 04:55:18;;;;;;;62.55;29.80;;;-0.80;99.90;;;;;;5043244;28;20087;-58
2023/01/21 04:57:44;;;;;;;63.88;30.80;;;-0.80;99.90;;;;;;5042356;28;20037;-58
2023/01/21 05:00:10;;;;;;;65.07;32.45;;;-0.90;99.90;;;;;;5045630;28;20060;-58
2023/01/21 05:02:36;;;;;;;65.78;31.08;;;-0.80;99.90;;;;;;5045086;28;20356;-58
2023/01/21 05:05:02;;;;;;;66.15;31.13;;;-0.80;99.90;;;;;;5044052;28;20037;-59
2023/01/21 05:07:28;;;;;;;61.92;30.48;;;-0.80;99.90;;;;;;5041658;28;20090;-58
2023/01/21 05:09:53;;;;;;;67.00;32.28;;;-0.80;99.90;;;;;;5041723;28;20068;-57
2023/01/21 05:12:19;;;;;;;67.93;31.73;;;-0.80;99.90;;;;;;5015730;28;20052;-59
2023/01/21 05:14:45;;;;;;;60.10;30.13;;;-0.80;99.90;;;;;;5039360;28;20041;-58
2023/01/21 05:17:11;;;;;;;67.53;31.52;;;-0.80;99.90;;;;;;5041825;28;20040;-58
2023/01/21 05:19:36;;;;;;;61.92;30.98;;;-0.80;99.90;;;;;;5038191;28;20040;-58
2023/01/21 05:22:02;;;;;;;57.75;29.67;;;-0.80;99.90;;;;;;5015253;28;20063;-58
2023/01/21 05:24:28;;;;;;;55.63;28.45;;;-0.80;99.90;;;;;;5025601;28;20045;-58
2023/01/21 05:26:54;;;;;;;64.20;29.52;;;-0.80;99.90;;;;;;5040471;28;20041;-59
2023/01/21 05:29:20;;;;;;;59.55;29.13;;;-0.80;99.90;;;;;;5038209;28;20076;-58
2023/01/21 05:31:45;;;;;;;59.10;28.92;;;-0.80;99.90;;;;;;5041736;28;20086;-58
2023/01/21 05:34:11;;;;;;;62.60;30.10;;;-0.90;99.90;;;;;;5045953;28;20456;-58
2023/01/21 05:36:38;;;;;;;52.15;27.83;;;-0.90;99.90;;;;;;5044781;28;20052;-58
2023/01/21 05:39:04;;;;;;;61.42;30.23;;;-0.90;99.90;;;;;;5006777;28;20045;-59
2023/01/21 05:41:30;;;;;;;57.60;29.73;;;-0.90;99.90;;;;;;5039600;28;20052;-58
2023/01/21 05:43:56;;;;;;;59.30;30.50;;;-0.90;99.90;;;;;;5041030;28;20653;-58
2023/01/21 05:46:22;;;;;;;60.70;29.75;;;-0.90;99.90;;;;;;5042201;28;20036;-58
2023/01/21 05:48:48;;;;;;;58.95;30.10;;;-1.00;99.90;;;;;;5041103;28;20124;-58
2023/01/21 05:51:14;;;;;;;58.17;29.92;;;-1.00;99.90;;;;;;5023664;28;20064;-58
2023/01/21 05:53:39;;;;;;;53.38;27.67;;;-1.00;99.90;;;;;;5040045;28;20521;-59
2023/01/21 05:56:05;;;;;;;53.00;29.60;;;-1.00;99.90;;;;;;5041052;28;20048;-58
2023/01/21 05:58:31;;;;;;;54.35;27.70;;;-1.10;99.90;;;;;;5041456;28;20041;-58
2023/01/21 06:00:57;;;;;;;59.33;29.33;;;-1.10;99.90;;;;;;5039421;28;20128;-56
2023/01/21 06:03:24;;;;;;;60.97;29.42;;;-1.10;99.90;;;;;;5040193;28;20044;-58
2023/01/21 06:05:50;;;;;;;52.28;26.80;;;-1.20;99.90;;;;;;5037805;28;20045;-59
2023/01/21 06:08:17;;;;;;;60.33;29.55;;;-1.20;99.90;;;;;;5040885;28;20045;-59
2023/01/21 06:10:43;;;;;;;58.17;29.35;;;-1.20;99.90;;;;;;5040472;28;20467;-58
2023/01/21 06:13:13;;;;;;;64.00;31.52;;;-1.10;99.90;;;;;;5038647;28;20045;-58
2023/01/21 06:15:39;;;;;;;55.63;28.20;;;-1.20;99.90;;;;;;5036431;28;20060;-59
2023/01/21 06:18:05;;;;;;;61.33;30.85;;;-1.30;99.90;;;;;;5035990;28;20037;-58
2023/01/21 06:20:31;;;;;;;63.78;31.27;;;-1.30;99.90;;;;;;5039565;28;20468;-58
2023/01/21 06:22:57;;;;;;;67.25;31.65;;;-1.30;99.90;;;;;;5037619;28;20060;-58
2023/01/21 06:25:24;;;;;;;58.88;29.20;;;-1.30;99.90;;;;;;5033207;28;20041;-57
2023/01/21 06:27:53;;;;;;;60.40;29.52;;;-1.30;99.90;;;;;;5036289;28;20063;-59
2023/01/21 06:30:19;;;;;;;57.30;29.23;;;-1.40;99.90;;;;;;5036985;28;20106;-58
2023/01/21 06:32:44;;;;;;;57.53;30.30;;;-1.40;99.90;;;;;;5037640;28;20442;-59
2023/01/21 06:35:10;;;;;;;52.83;27.20;;;-1.30;99.90;;;;;;5044889;28;20098;-58
2023/01/21 06:37:36;;;;;;;54.95;28.13;;;-1.40;99.90;;;;;;5041324;28;20048;-58
2023/01/21 06:40:02;;;;;;;50.53;25.77;;;-1.50;99.90;;;;;;5035211;28;20049;-58
2023/01/21 06:42:28;;;;;;;55.83;27.73;;;-1.60;99.90;;;;;;5021990;28;20102;-58
2023/01/21 06:44:54;;;;;;;51.78;25.98;;;-1.50;99.90;;;;;;5002565;28;20048;-58
2023/01/21 06:47:20;;;;;;;51.33;27.95;;;-1.60;99.90;;;;;;5021412;28;20052;-59
2023/01/21 06:49:45;;;;;;;50.33;26.85;;;-1.60;99.90;;;;;;5001223;28;20869;-58
2023/01/21 06:52:11;;;;;;;53.55;26.17;;;-1.60;99.90;;;;;;5041650;28;20048;-58
2023/01/21 06:54:37;;;;;;;57.60;28.83;;;-1.70;99.90;;;;;;5024163;28;20045;-58
2023/01/21 06:57:03;;;;;;;60.85;29.30;;;-1.70;99.90;;;;;;5043794;28;20067;-58
2023/01/21 06:59:28;;;;;;;58.53;28.38;;;-1.70;99.90;;;;;;5042266;28;20041;-58
2023/01/21 07:01:57;;;;;;;60.90;30.35;;;-1.70;99.90;;;;;;5028423;28;20533;-59
2023/01/21 07:04:24;;;;;;;70.82;31.48;;;-1.70;99.90;;;;;;5043301;28;20044;-58
2023/01/21 07:06:50;;;;;;;68.95;30.95;;;-1.70;99.90;;;;;;5042379;28;20049;-58
2023/01/21 07:09:16;;;;;;;59.83;28.27;;;-1.70;99.90;;;;;;5041560;28;20069;-58
2023/01/21 07:11:42;;;;;;;54.70;27.20;;;-1.70;99.90;;;;;;5040225;28;20377;-58
2023/01/21 07:14:08;;;;;;;54.65;26.45;;;-1.80;99.90;;;;;;5038904;28;20051;-58
2023/01/21 07:16:34;;;;;;;56.47;27.85;;;-1.80;99.90;;;;;;5017795;28;20041;-58
2023/01/21 07:19:00;;;;;;;60.08;27.40;;;-1.80;99.90;;;;;;5033745;28;20135;-59
2023/01/21 07:21:25;;;;;;;55.72;27.58;;;-1.80;99.90;;;;;;5036562;28;20049;-58
2023/01/21 07:23:53;;;;;;;57.58;27.02;;;-1.90;99.90;;;;;;5045289;28;20067;-59
2023/01/21 07:26:19;;;;;;;51.13;26.48;;;-1.90;99.90;;;;;;5045526;28;20110;-57
2023/01/21 07:28:44;;;;;;;54.08;27.45;;;-1.90;99.90;;;;;;5027609;28;20487;-57
2023/01/21 07:31:10;;;;;;;51.75;26.17;;;-1.90;99.90;;;;;;5045117;28;20483;-58
2023/01/21 07:33:36;;;;;;;62.50;28.15;;;-1.90;99.90;;;;;;5029060;28;20549;-58
2023/01/21 07:36:02;;;;;;;58.60;28.90;;;-2.00;99.90;;;;;;5044988;28;20048;-58
2023/01/21 07:38:28;;;;;;;53.58;27.27;;;-2.00;99.90;;;;;;5043105;28;20112;-58
2023/01/21 07:40:54;;;;;;;50.40;26.38;;;-2.00;99.90;;;;;;5038317;28;20041;-58
2023/01/21 07:43:19;;;;;;;59.95;27.13;;;-2.00;99.90;;;;;;5042779;28;20041;-58
2023/01/21 07:45:45;;;;;;;54.95;28.13;;;-2.00;99.90;;;;;;5047356;28;20409;-58
2023/01/21 07:48:11;;;;;;;54.67;27.15;;;-1.90;99.90;;;;;;5043418;28;20129;-58
2023/01/21 07:50:37;;;;;;;48.92;25.92;;;-2.10;99.90;;;;;;5043929;28;20510;-58
2023/01/21 07:53:03;;;;;;;53.55;26.73;;;-2.10;99.90;;;;;;5043562;28;20044;-58
2023/01/21 07:55:29;;;;;;;60.80;27.92;;;-2.10;99.90;;;;;;5043885;28;20041;-58
2023/01/21 07:57:56;;;;;;;55.80;27.63;;;-2.10;99.90;;;;;;5044158;28;20092;-58
2023/01/21 08:00:23;;;;;;;53.67;26.80;;;-2.10;99.90;;;;;;5039662;28;20075;-58
2023/01/21 08:02:56;;;;;;;56.17;27.80;;;-2.20;99.90;;;;;;5039017;28;20102;-59
2023/01/21 08:05:22;;;;;;;53.95;27.13;;;-2.10;99.90;;;;;;5042348;28;20053;-58
2023/01/21 08:07:49;;;;;;;54.88;27.02;;;-2.20;99.90;;;;;;5044521;28;20075;-58
2023/01/21 08:10:16;;;;;;;57.63;29.05;;;-2.10;99.90;;;;;;5040625;28;20045;-58
2023/01/21 08:12:42;;;;;;;54.70;26.80;;;-2.20;99.90;;;;;;5044803;28;20040;-59
2023/01/21 08:15:09;;;;;;;55.15;28.65;;;-2.10;99.90;;;;;;5023695;28;20396;-58
2023/01/21 08:17:38;;;;;;;55.30;26.60;;;-2.10;99.90;;;;;;5024659;28;20033;-59
2023/01/21 08:20:06;;;;;;;57.10;28.83;;;-2.10;99.90;;;;;;5045985;28;20044;-57
2023/01/21 08:22:32;;;;;;;55.05;28.02;;;-2.20;99.90;;;;;;5043484;28;20127;-58
2023/01/21 08:24:57;;;;;;;63.47;30.33;;;-2.10;99.90;;;;;;5042791;28;20055;-57
2023/01/21 08:27:23;;;;;;;60.95;29.08;;;-2.10;99.90;;;;;;5038079;28;20044;-58
2023/01/21 08:29:49;;;;;;;57.88;28.60;;;-2.10;99.90;;;;;;5011905;28;20053;-58
2023/01/21 08:32:15;;;;;;;57.60;28.65;;;-2.10;99.90;;;;;;5032601;28;20093;-58
2023/01/21 08:34:41;;;;;;;64.13;29.92;;;-2.10;99.90;;;;;;5026405;28;20128;-58
2023/01/21 08:37:06;;;;;;;65.43;30.23;;;-2.00;99.90;;;;;;4995698;28;20079;-59
2023/01/21 08:39:32;;;;;;;66.95;29.80;;;-2.00;99.90;;;;;;5017328;28;20049;-58
2023/01/21 08:41:58;;;;;;;63.67;31.50;;;-2.00;99.90;;;;;;5043028;28;20052;-58
2023/01/21 08:44:24;;;;;;;69.05;30.77;;;-2.00;99.90;;;;;;5042844;28;20124;-58
2023/01/21 08:46:50;;;;;;;64.38;31.27;;;-1.90;99.90;;;;;;5041352;28;20048;-58
2023/01/21 08:49:15;;;;;;;61.53;30.65;;;-1.90;99.90;;;;;;5042760;28;20062;-58
2023/01/21 08:51:41;;;;;;;60.13;27.38;;;-1.90;99.90;;;;;;5044050;28;20478;-58
2023/01/21 08:54:07;;;;;;;56.30;28.23;;;-1.80;99.90;;;;;;5043396;28;20041;-59
2023/01/21 08:56:34;;;;;;;58.65;28.63;;;-1.80;99.90;;;;;;5042166;28;20521;-58
2023/01/21 08:59:01;;;;;;;66.78;30.13;;;-1.80;99.90;;;;;;5040704;28;20115;-57
2023/01/21 09:01:28;;;;;;;62.83;30.42;;;-1.80;99.90;;;;;;5034824;28;20049;-58
2023/01/21 09:03:55;;;;;;;63.17;30.58;;;-1.80;99.90;;;;;;5042803;28;20052;-58
2023/01/21 09:06:22;;;;;;;59.35;29.80;;;-1.70;99.90;;;;;;5024238;28;20040;-58
2023/01/21 09:08:48;;;;;;;71.18;31.95;;;-1.70;99.90;;;;;;5023640;28;20128;-58
2023/01/21 09:11:15;;;;;;;64.32;30.80;;;-1.70;99.90;;;;;;5042524;28;20097;-58
2023/01/21 09:13:43;;;;;;;75.40;31.80;;;-1.60;99.90;;;;;;5044445;28;20107;-59
2023/01/21 09:16:20;;;;;;;60.72;30.60;;;-1.60;99.90;;;;;;5044120;28;20033;-58
2023/01/21 09:18:46;;;;;;;60.97;29.98;;;-1.50;99.90;;;;;;5042923;28;20044;-58
2023/01/21 09:21:13;;;;;;;76.75;33.08;;;-1.50;99.90;;;;;;5038327;28;20052;-58
2023/01/21 09:23:40;;;;;;;72.45;32.72;;;-1.40;99.90;;;;;;5044103;28;20065;-59
2023/01/21 09:26:11;;;;;;;71.32;33.30;;;-1.30;99.90;;;;;;5041337;28;20168;-59
2023/01/21 09:28:39;;;;;;;73.93;33.90;;;-1.30;99.90;;;;;;5044430;28;20451;-58
2023/01/21 09:31:08;;;;;;;79.88;34.30;;;-1.20;99.90;;;;;;5038628;28;20052;-58
2023/01/21 09:33:35;;;;;;;71.30;33.25;;;-1.20;99.90;;;;;;5037757;28;20052;-58
2023/01/21 09:36:04;;;;;;;69.28;32.17;;;-1.00;99.90;;;;;;5041616;28;20041;-58
2023/01/21 09:38:29;;;;;;;62.63;31.55;;;-1.00;99.90;;;;;;5035621;28;20051;-58
2023/01/21 09:41:18;;;;;;;73.63;32.83;;;-0.90;99.90;;;;;;5041738;28;20029;-58
2023/01/21 09:43:52;;;;;;;78.18;34.25;;;-0.80;99.90;;;;;;5031787;28;20052;-58
2023/01/21 09:46:30;;;;;;;78.20;35.58;;;-0.60;99.90;;;;;;5038644;28;20044;-58
2023/01/21 09:48:58;;;;;;;76.60;32.15;;;-0.50;99.90;;;;;;5042396;28;20075;-58
2023/01/21 09:52:00;;;;;;;78.05;33.15;;;-0.40;99.90;;;;;;5042715;28;20052;-59
2023/01/21 09:54:29;;;;;;;75.93;32.40;;;-0.20;99.90;;;;;;5016177;28;20044;-58
2023/01/21 09:57:01;;;;;;;77.55;33.95;;;0.00;99.90;;;;;;5044282;28;20044;-58
2023/01/21 09:59:43;;;;;;;82.00;35.17;;;0.10;99.90;;;;;;5043949;28;20072;-58
2023/01/21 10:02:26;;;;;;;76.37;34.03;;;0.30;99.90;;;;;;5040118;28;20303;-59
2023/01/21 10:05:22;;;;;;;79.28;34.45;;;0.50;99.90;;;;;;5044852;28;20051;-58
2023/01/21 10:08:08;;;;;;;74.05;33.20;;;0.60;99.90;;;;;;5043306;28;20064;-58
2023/01/21 10:10:50;;;;;;;79.50;35.60;;;0.90;99.90;;;;;;5046640;28;20037;-58
2023/01/21 10:13:25;;;;;;;68.22;31.88;;;1.00;99.90;;;;;;5048867;28;20392;-59
2023/01/21 10:16:00;;;;;;;67.22;30.90;;;1.10;99.90;;;;;;5043487;28;20475;-58
2023/01/21 10:18:30;;;;;;;66.90;31.00;;;1.20;99.90;;;;;;5041983;28;20045;-58
2023/01/21 10:21:09;;;;;;;62.22;30.00;;;1.30;99.90;;;;;;5049474;28;20033;-59
2023/01/21 10:23:56;;;;;;;66.38;31.35;;;1.40;99.90;;;;;;5046433;28;20206;-59
2023/01/21 10:26:23;;;;;;;56.58;26.98;;;1.50;99.90;;;;;;5022325;28;20495;-58
2023/01/21 10:28:53;;;;;;;55.75;28.15;;;1.50;99.90;;;;;;5046369;28;20087;-59
2023/01/21 10:31:24;;;;;;;53.35;26.55;;;1.60;99.90;;;;;;5045073;28;20048;-59
2023/01/21 10:33:49;;;;;;;44.50;24.23;;;1.80;99.90;;;;;;5044300;28;20056;-58
2023/01/21 10:36:46;;;;;;;46.58;24.38;;;2.00;99.90;;;;;;5044993;28;20041;-59
2023/01/21 10:39:30;;;;;;;40.75;22.55;;;2.10;99.90;;;;;;5046471;28;20116;-58
2023/01/21 10:42:14;;;;;;;39.42;22.02;;;2.30;99.90;;;;;;5045738;28;20045;-61
2023/01/21 10:44:53;;;;;;;38.58;21.38;;;2.50;99.90;;;;;;5044034;28;20106;-61
2023/01/21 10:47:39;;;;;;;38.15;21.27;;;2.60;99.90;;;;;;5046385;28;20048;-61
2023/01/21 10:50:30;;;;;;;33.97;19.38;;;2.80;99.90;;;;;;5043388;28;20041;-61
2023/01/21 10:53:02;;;;;;;40.30;21.40;;;2.90;99.90;;;;;;5046126;28;20079;-61
2023/01/21 10:55:53;;;;;;;31.80;18.90;;;3.00;99.90;;;;;;5047880;28;20123;-61
2023/01/21 10:58:45;;;;;;;32.53;19.55;;;3.10;99.90;;;;;;5043866;28;20052;-61
2023/01/21 11:01:33;;;;;;;32.42;20.55;;;3.20;99.90;;;;;;5041675;28;20400;-61
2023/01/21 11:04:06;;;;;;;32.20;19.15;;;3.40;99.90;;;;;;5043072;28;20125;-61
2023/01/21 11:06:34;;;;;;;35.00;18.98;;;3.50;99.90;;;;;;5043416;28;20112;-61
2023/01/21 11:09:02;;;;;;;26.83;17.33;;;3.70;99.90;;;;;;5044487;28;20140;-61
2023/01/21 11:11:34;;;;;;;26.15;15.82;;;3.70;99.90;;;;;;5041868;28;20053;-61
2023/01/21 11:14:00;;;;;;;26.17;16.20;;;3.80;99.90;;;;;;5043744;28;20124;-61
2023/01/21 11:16:38;;;;;;;23.77;15.60;;;3.90;99.90;;;;;;5037495;28;20055;-61
2023/01/21 11:19:06;;;;;;;25.42;15.85;;;4.00;99.90;;;;;;5042203;28;20183;-61
2023/01/21 11:21:32;;;;;;;21.20;13.98;;;4.20;99.90;;;;;;5040847;28;20041;-61
2023/01/21 11:24:02;;;;;;;21.27;14.25;;;4.30;99.90;;;;;;5041971;28;20064;-61
2023/01/21 11:26:34;;;;;;;21.92;12.90;;;4.30;99.90;;;;;;5041332;28;20049;-61
2023/01/21 11:29:13;;;;;;;21.27;14.02;;;4.40;99.90;;;;;;5042947;28;20076;-61
2023/01/21 11:31:42;;;;;;;22.10;14.60;;;4.40;99.90;;;;;;5039045;28;21147;-61
2023/01/21 11:34:18;;;;;;;20.30;13.57;;;4.40;99.90;;;;;;5021860;28;20045;-61
2023/01/21 11:37:02;;;;;;;23.33;14.25;;;4.50;99.90;;;;;;5034749;28;20041;-61
2023/01/21 11:39:32;;;;;;;21.42;13.88;;;4.40;99.90;;;;;;5041837;28;20044;-61
2023/01/21 11:42:23;;;;;;;23.35;14.02;;;4.40;99.90;;;;;;5037806;28;20045;-61
2023/01/21 11:45:03;;;;;;;22.02;14.13;;;4.40;99.90;;;;;;5041200;28;20447;-61
2023/01/21 11:47:36;;;;;;;21.27;13.95;;;4.30;99.90;;;;;;5042259;28;20080;-61
2023/01/21 11:50:26;;;;;;;19.40;12.43;;;4.30;99.90;;;;;;5039877;28;20087;-61
2023/01/21 11:53:11;;;;;;;17.88;12.10;;;4.40;99.90;;;;;;5035248;28;20381;-61
2023/01/21 11:55:44;;;;;;;19.35;12.15;;;4.50;99.90;;;;;;5041425;28;20049;-61
2023/01/21 11:58:25;;;;;;;17.85;11.75;;;4.50;99.90;;;;;;5023362;28;20058;-61
2023/01/21 12:00:54;;;;;;;17.10;12.25;;;4.50;99.90;;;;;;5041933;28;20063;-61
2023/01/21 12:03:28;;;;;;;17.38;11.95;;;4.50;99.90;;;;;;5041553;28;20067;-61
2023/01/21 12:05:54;;;;;;;16.95;11.75;;;4.50;99.90;;;;;;5040553;28;20107;-61
2023/01/21 12:08:23;;;;;;;17.05;11.50;;;4.50;99.90;;;;;;5029238;28;20434;-61
2023/01/21 12:10:51;;;;;;;17.88;11.57;;;4.50;99.90;;;;;;5044537;28;20085;-61
2023/01/21 12:13:36;;;;;;;14.63;10.77;;;4.40;99.90;;;;;;5039690;28;20045;-61
2023/01/21 12:16:10;;;;;;;17.48;10.63;;;4.40;99.90;;;;;;5012053;28;23942;-60
2023/01/21 12:19:01;;;;;;;14.73;10.50;;;4.30;99.90;;;;;;5038966;28;20076;-61
2023/01/21 12:21:33;;;;;;;18.02;10.95;;;4.20;99.90;;;;;;5039198;28;20692;-61
2023/01/21 12:24:14;;;;;;;16.03;11.30;;;4.10;99.90;;;;;;5043466;28;20064;-61
2023/01/21 12:26:49;;;;;;;13.52;10.25;;;4.10;99.90;;;;;;5044757;28;20049;-61
2023/01/21 12:29:49;;;;;;;14.35;10.40;;;4.10;99.90;;;;;;5025839;28;20049;-60
2023/01/21 12:32:18;;;;;;;12.40;8.90;;;4.10;99.90;;;;;;5042449;28;20064;-59
2023/01/21 12:35:01;;;;;;;12.80;9.32;;;4.10;99.90;;;;;;5045100;28;21207;-61
2023/01/21 12:37:52;;;;;;;14.13;9.70;;;4.10;99.90;;;;;;5026974;28;20123;-61
2023/01/21 12:40:32;;;;;;;11.55;7.90;;;4.10;99.90;;;;;;5038986;28;20052;-60
2023/01/21 12:43:21;;;;;;;10.65;7.68;;;4.10;99.90;;;;;;5019266;28;20056;-61
2023/01/21 12:46:00;;;;;;;10.77;8.48;;;4.20;99.90;;;;;;5027264;28;20098;-61
2023/01/21 12:48:32;;;;;;;7.43;5.88;;;4.30;99.90;;;;;;5018313;28;20543;-61
2023/01/21 12:51:13;;;;;;;8.05;6.30;;;4.50;99.90;;;;;;5046330;28;20087;-61
2023/01/21 12:54:03;;;;;;;8.30;6.75;;;4.50;99.90;;;;;;5045028;28;20053;-61